sensor_id;sensor_type;location;lat;lon;timestamp;P1;durP1;ratioP1;P2;durP2;ratioP2
8622;SDS011;4349;47.552;8.904;2023-05-13T00:00:53;6.03;;;5.53;;
8622;SDS011;4349;47.552;8.904;2023-05-13T00:03:21;5.00;;;4.63;;
8622;SDS011;4349;47.552;8.904;2023-05-13T00:05:48;5.30;;;5.00;;
8622;SDS011;4349;47.552;8.904;2023-05-13T00:08:16;5.57;;;5.07;;
8622;SDS011;4349;47.552;8.904;2023-05-13T00:10:45;5.53;;;5.13;;
8622;SDS011;4349;47.552;8.904;2023-05-13T00:13:12;5.70;;;5.37;;
8622;SDS011;4349;47.552;8.904;2023-05-13T00:15:39;5.23;;;4.83;;
8622;SDS011;4349;47.552;8.904;2023-05-13T00:18:08;5.90;;;5.50;;
8622;SDS011;4349;47.552;8.904;2023-05-13T00:20:36;5.50;;;5.20;;
8622;SDS011;4349;47.552;8.904;2023-05-13T00:23:03;5.50;;;5.20;;
8622;SDS011;4349;47.552;8.904;2023-05-13T00:25:32;6.20;;;5.67;;
8622;SDS011;4349;47.552;8.904;2023-05-13T00:28:00;5.43;;;5.03;;
8622;SDS011;4349;47.552;8.904;2023-05-13T00:30:27;5.60;;;5.20;;
8622;SDS011;4349;47.552;8.904;2023-05-13T00:32:55;5.60;;;5.30;;
8622;SDS011;4349;47.552;8.904;2023-05-13T00:35:24;6.03;;;5.50;;
8622;SDS011;4349;47.552;8.904;2023-05-13T00:37:51;5.60;;;5.20;;
8622;SDS011;4349;47.552;8.904;2023-05-13T00:40:19;6.23;;;5.60;;
8622;SDS011;4349;47.552;8.904;2023-05-13T00:42:48;5.30;;;5.00;;
8622;SDS011;4349;47.552;8.904;2023-05-13T00:45:15;5.97;;;5.57;;
8622;SDS011;4349;47.552;8.904;2023-05-13T00:47:43;5.67;;;5.27;;
8622;SDS011;4349;47.552;8.904;2023-05-13T00:50:10;5.40;;;5.10;;
8622;SDS011;4349;47.552;8.904;2023-05-13T00:52:41;5.90;;;5.50;;
8622;SDS011;4349;47.552;8.904;2023-05-13T00:55:09;5.80;;;5.40;;
8622;SDS011;4349;47.552;8.904;2023-05-13T00:57:36;5.50;;;5.20;;
8622;SDS011;4349;47.552;8.904;2023-05-13T01:00:04;5.80;;;5.30;;
8622;SDS011;4349;47.552;8.904;2023-05-13T01:02:34;5.77;;;5.40;;
8622;SDS011;4349;47.552;8.904;2023-05-13T01:05:08;6.70;;;6.20;;
8622;SDS011;4349;47.552;8.904;2023-05-13T01:07:39;6.57;;;6.13;;
8622;SDS011;4349;47.552;8.904;2023-05-13T01:10:13;6.90;;;6.13;;
8622;SDS011;4349;47.552;8.904;2023-05-13T01:12:42;6.50;;;6.10;;
8622;SDS011;4349;47.552;8.904;2023-05-13T01:15:11;6.97;;;6.33;;
8622;SDS011;4349;47.552;8.904;2023-05-13T01:17:41;7.10;;;6.47;;
8622;SDS011;4349;47.552;8.904;2023-05-13T01:20:10;6.83;;;6.33;;
8622;SDS011;4349;47.552;8.904;2023-05-13T01:22:39;7.10;;;6.50;;
8622;SDS011;4349;47.552;8.904;2023-05-13T01:25:07;7.07;;;6.57;;
8622;SDS011;4349;47.552;8.904;2023-05-13T01:27:35;7.03;;;6.53;;
8622;SDS011;4349;47.552;8.904;2023-05-13T01:30:03;6.67;;;6.10;;
8622;SDS011;4349;47.552;8.904;2023-05-13T01:32:32;6.63;;;6.13;;
8622;SDS011;4349;47.552;8.904;2023-05-13T01:35:00;5.93;;;5.60;;
8622;SDS011;4349;47.552;8.904;2023-05-13T01:37:28;6.67;;;6.17;;
8622;SDS011;4349;47.552;8.904;2023-05-13T01:39:57;6.00;;;5.50;;
8622;SDS011;4349;47.552;8.904;2023-05-13T01:42:29;6.30;;;5.90;;
8622;SDS011;4349;47.552;8.904;2023-05-13T01:44:57;5.47;;;5.13;;
8622;SDS011;4349;47.552;8.904;2023-05-13T01:47:24;6.47;;;5.97;;
8622;SDS011;4349;47.552;8.904;2023-05-13T01:49:52;5.87;;;5.37;;
8622;SDS011;4349;47.552;8.904;2023-05-13T01:52:19;5.70;;;5.40;;
8622;SDS011;4349;47.552;8.904;2023-05-13T01:54:47;6.00;;;5.53;;
8622;SDS011;4349;47.552;8.904;2023-05-13T01:57:17;6.07;;;5.67;;
8622;SDS011;4349;47.552;8.904;2023-05-13T01:59:45;6.67;;;6.17;;
8622;SDS011;4349;47.552;8.904;2023-05-13T02:02:13;6.13;;;5.73;;
8622;SDS011;4349;47.552;8.904;2023-05-13T02:04:40;6.27;;;5.87;;
8622;SDS011;4349;47.552;8.904;2023-05-13T02:07:08;6.53;;;6.03;;
8622;SDS011;4349;47.552;8.904;2023-05-13T02:09:35;6.37;;;5.87;;
8622;SDS011;4349;47.552;8.904;2023-05-13T02:12:04;6.23;;;5.83;;
8622;SDS011;4349;47.552;8.904;2023-05-13T02:14:33;6.17;;;5.77;;
8622;SDS011;4349;47.552;8.904;2023-05-13T02:17:01;6.07;;;5.67;;
8622;SDS011;4349;47.552;8.904;2023-05-13T02:19:28;6.40;;;6.00;;
8622;SDS011;4349;47.552;8.904;2023-05-13T02:21:55;6.17;;;5.67;;
8622;SDS011;4349;47.552;8.904;2023-05-13T02:24:23;6.80;;;6.30;;
8622;SDS011;4349;47.552;8.904;2023-05-13T02:26:51;6.33;;;5.93;;
8622;SDS011;4349;47.552;8.904;2023-05-13T02:29:19;6.67;;;6.27;;
8622;SDS011;4349;47.552;8.904;2023-05-13T02:31:48;5.93;;;5.43;;
8622;SDS011;4349;47.552;8.904;2023-05-13T02:34:16;6.00;;;5.60;;
8622;SDS011;4349;47.552;8.904;2023-05-13T02:36:43;6.37;;;5.87;;
8622;SDS011;4349;47.552;8.904;2023-05-13T02:39:11;6.60;;;6.10;;
8622;SDS011;4349;47.552;8.904;2023-05-13T02:41:38;6.17;;;5.77;;
8622;SDS011;4349;47.552;8.904;2023-05-13T02:44:06;6.47;;;6.03;;
8622;SDS011;4349;47.552;8.904;2023-05-13T02:46:33;6.27;;;5.83;;
8622;SDS011;4349;47.552;8.904;2023-05-13T02:49:02;6.07;;;5.67;;
8622;SDS011;4349;47.552;8.904;2023-05-13T02:51:30;6.63;;;6.13;;
8622;SDS011;4349;47.552;8.904;2023-05-13T02:53:58;6.37;;;5.97;;
8622;SDS011;4349;47.552;8.904;2023-05-13T02:56:26;6.00;;;5.43;;
8622;SDS011;4349;47.552;8.904;2023-05-13T02:58:54;6.53;;;6.13;;
8622;SDS011;4349;47.552;8.904;2023-05-13T03:01:21;6.77;;;6.27;;
8622;SDS011;4349;47.552;8.904;2023-05-13T03:03:49;6.97;;;6.47;;
8622;SDS011;4349;47.552;8.904;2023-05-13T03:06:17;6.40;;;6.00;;
8622;SDS011;4349;47.552;8.904;2023-05-13T03:08:45;6.73;;;6.23;;
8622;SDS011;4349;47.552;8.904;2023-05-13T03:11:12;6.97;;;6.47;;
8622;SDS011;4349;47.552;8.904;2023-05-13T03:13:40;6.90;;;6.47;;
8622;SDS011;4349;47.552;8.904;2023-05-13T03:16:08;7.20;;;6.50;;
8622;SDS011;4349;47.552;8.904;2023-05-13T03:18:35;7.03;;;6.63;;
8622;SDS011;4349;47.552;8.904;2023-05-13T03:21:03;7.60;;;7.10;;
8622;SDS011;4349;47.552;8.904;2023-05-13T03:23:32;6.87;;;6.30;;
8622;SDS011;4349;47.552;8.904;2023-05-13T03:26:00;7.67;;;6.97;;
8622;SDS011;4349;47.552;8.904;2023-05-13T03:28:29;6.70;;;6.20;;
8622;SDS011;4349;47.552;8.904;2023-05-13T03:30:57;7.20;;;6.70;;
8622;SDS011;4349;47.552;8.904;2023-05-13T03:33:26;6.87;;;6.33;;
8622;SDS011;4349;47.552;8.904;2023-05-13T03:35:54;6.63;;;6.23;;
8622;SDS011;4349;47.552;8.904;2023-05-13T03:38:27;6.03;;;5.63;;
8622;SDS011;4349;47.552;8.904;2023-05-13T03:40:56;6.23;;;5.73;;
8622;SDS011;4349;47.552;8.904;2023-05-13T03:43:24;6.37;;;5.97;;
8622;SDS011;4349;47.552;8.904;2023-05-13T03:45:57;5.70;;;5.27;;
8622;SDS011;4349;47.552;8.904;2023-05-13T03:48:25;6.10;;;5.70;;
8622;SDS011;4349;47.552;8.904;2023-05-13T03:50:55;6.50;;;6.03;;
8622;SDS011;4349;47.552;8.904;2023-05-13T03:53:22;5.87;;;5.57;;
8622;SDS011;4349;47.552;8.904;2023-05-13T03:55:52;6.97;;;6.37;;
8622;SDS011;4349;47.552;8.904;2023-05-13T03:58:21;6.20;;;5.80;;
8622;SDS011;4349;47.552;8.904;2023-05-13T04:00:48;6.03;;;5.63;;
8622;SDS011;4349;47.552;8.904;2023-05-13T04:03:16;6.33;;;5.93;;
8622;SDS011;4349;47.552;8.904;2023-05-13T04:05:44;6.93;;;6.43;;
8622;SDS011;4349;47.552;8.904;2023-05-13T04:08:12;6.87;;;6.27;;
8622;SDS011;4349;47.552;8.904;2023-05-13T04:10:41;6.73;;;6.30;;
8622;SDS011;4349;47.552;8.904;2023-05-13T04:13:09;7.30;;;6.60;;
8622;SDS011;4349;47.552;8.904;2023-05-13T04:15:38;6.67;;;6.17;;
8622;SDS011;4349;47.552;8.904;2023-05-13T04:18:05;7.03;;;6.60;;
8622;SDS011;4349;47.552;8.904;2023-05-13T04:20:33;6.53;;;5.83;;
8622;SDS011;4349;47.552;8.904;2023-05-13T04:23:01;5.93;;;5.63;;
8622;SDS011;4349;47.552;8.904;2023-05-13T04:25:29;6.07;;;5.57;;
8622;SDS011;4349;47.552;8.904;2023-05-13T04:27:56;6.63;;;6.20;;
8622;SDS011;4349;47.552;8.904;2023-05-13T04:30:29;6.13;;;5.73;;
8622;SDS011;4349;47.552;8.904;2023-05-13T04:32:58;6.10;;;5.70;;
8622;SDS011;4349;47.552;8.904;2023-05-13T04:35:26;6.30;;;5.90;;
8622;SDS011;4349;47.552;8.904;2023-05-13T04:37:57;6.53;;;6.13;;
8622;SDS011;4349;47.552;8.904;2023-05-13T04:40:24;6.40;;;6.00;;
8622;SDS011;4349;47.552;8.904;2023-05-13T04:42:54;6.73;;;6.23;;
8622;SDS011;4349;47.552;8.904;2023-05-13T04:45:26;6.50;;;6.10;;
8622;SDS011;4349;47.552;8.904;2023-05-13T04:47:54;7.10;;;6.33;;
8622;SDS011;4349;47.552;8.904;2023-05-13T04:50:25;7.10;;;6.50;;
8622;SDS011;4349;47.552;8.904;2023-05-13T04:52:53;6.20;;;5.80;;
8622;SDS011;4349;47.552;8.904;2023-05-13T04:55:21;6.83;;;6.40;;
8622;SDS011;4349;47.552;8.904;2023-05-13T04:57:52;6.87;;;6.37;;
8622;SDS011;4349;47.552;8.904;2023-05-13T05:00:20;6.30;;;5.90;;
8622;SDS011;4349;47.552;8.904;2023-05-13T05:02:49;5.97;;;5.57;;
8622;SDS011;4349;47.552;8.904;2023-05-13T05:05:17;6.30;;;5.80;;
8622;SDS011;4349;47.552;8.904;2023-05-13T05:07:46;6.13;;;5.73;;
8622;SDS011;4349;47.552;8.904;2023-05-13T05:10:14;6.73;;;6.33;;
8622;SDS011;4349;47.552;8.904;2023-05-13T05:12:49;5.63;;;5.23;;
8622;SDS011;4349;47.552;8.904;2023-05-13T05:15:16;6.63;;;6.03;;
8622;SDS011;4349;47.552;8.904;2023-05-13T05:17:47;5.40;;;5.10;;
8622;SDS011;4349;47.552;8.904;2023-05-13T05:20:14;6.17;;;5.77;;
8622;SDS011;4349;47.552;8.904;2023-05-13T05:22:43;6.13;;;5.63;;
8622;SDS011;4349;47.552;8.904;2023-05-13T05:25:13;5.13;;;4.83;;
8622;SDS011;4349;47.552;8.904;2023-05-13T05:27:40;5.83;;;5.43;;
8622;SDS011;4349;47.552;8.904;2023-05-13T05:30:08;5.30;;;5.00;;
8622;SDS011;4349;47.552;8.904;2023-05-13T05:32:36;5.50;;;5.20;;
8622;SDS011;4349;47.552;8.904;2023-05-13T05:35:04;5.90;;;5.50;;
8622;SDS011;4349;47.552;8.904;2023-05-13T05:37:32;5.80;;;5.40;;
8622;SDS011;4349;47.552;8.904;2023-05-13T05:40:00;5.10;;;4.80;;
8622;SDS011;4349;47.552;8.904;2023-05-13T05:42:30;5.47;;;5.07;;
8622;SDS011;4349;47.552;8.904;2023-05-13T05:44:57;5.27;;;4.87;;
8622;SDS011;4349;47.552;8.904;2023-05-13T05:47:25;5.10;;;4.73;;
8622;SDS011;4349;47.552;8.904;2023-05-13T05:49:52;4.87;;;4.57;;
8622;SDS011;4349;47.552;8.904;2023-05-13T05:52:19;7.17;;;6.47;;
8622;SDS011;4349;47.552;8.904;2023-05-13T05:54:47;5.43;;;5.13;;
8622;SDS011;4349;47.552;8.904;2023-05-13T05:57:14;5.87;;;5.30;;
8622;SDS011;4349;47.552;8.904;2023-05-13T05:59:43;5.90;;;5.40;;
8622;SDS011;4349;47.552;8.904;2023-05-13T06:02:11;5.43;;;5.13;;
8622;SDS011;4349;47.552;8.904;2023-05-13T06:04:40;5.30;;;5.00;;
8622;SDS011;4349;47.552;8.904;2023-05-13T06:07:07;5.20;;;4.90;;
8622;SDS011;4349;47.552;8.904;2023-05-13T06:09:35;5.30;;;4.90;;
8622;SDS011;4349;47.552;8.904;2023-05-13T06:12:03;5.20;;;4.80;;
8622;SDS011;4349;47.552;8.904;2023-05-13T06:14:31;5.03;;;4.73;;
8622;SDS011;4349;47.552;8.904;2023-05-13T06:17:00;5.43;;;5.07;;
8622;SDS011;4349;47.552;8.904;2023-05-13T06:19:28;5.00;;;4.70;;
8622;SDS011;4349;47.552;8.904;2023-05-13T06:21:55;5.00;;;4.70;;
8622;SDS011;4349;47.552;8.904;2023-05-13T06:24:23;5.77;;;5.37;;
8622;SDS011;4349;47.552;8.904;2023-05-13T06:26:50;5.63;;;5.23;;
8622;SDS011;4349;47.552;8.904;2023-05-13T06:29:18;5.10;;;4.80;;
8622;SDS011;4349;47.552;8.904;2023-05-13T06:31:45;5.70;;;5.30;;
8622;SDS011;4349;47.552;8.904;2023-05-13T06:34:14;5.50;;;5.10;;
8622;SDS011;4349;47.552;8.904;2023-05-13T06:36:42;4.87;;;4.47;;
8622;SDS011;4349;47.552;8.904;2023-05-13T06:39:10;5.47;;;4.97;;
8622;SDS011;4349;47.552;8.904;2023-05-13T06:41:38;5.77;;;5.23;;
8622;SDS011;4349;47.552;8.904;2023-05-13T06:44:11;5.70;;;5.30;;
8622;SDS011;4349;47.552;8.904;2023-05-13T06:46:43;5.47;;;5.17;;
8622;SDS011;4349;47.552;8.904;2023-05-13T06:49:11;5.50;;;5.10;;
8622;SDS011;4349;47.552;8.904;2023-05-13T06:51:40;5.77;;;5.47;;
8622;SDS011;4349;47.552;8.904;2023-05-13T06:54:07;5.47;;;5.07;;
8622;SDS011;4349;47.552;8.904;2023-05-13T06:56:35;6.30;;;5.80;;
8622;SDS011;4349;47.552;8.904;2023-05-13T06:59:02;6.13;;;5.73;;
8622;SDS011;4349;47.552;8.904;2023-05-13T07:01:30;5.70;;;5.30;;
8622;SDS011;4349;47.552;8.904;2023-05-13T07:03:57;6.90;;;6.30;;
8622;SDS011;4349;47.552;8.904;2023-05-13T07:06:24;6.40;;;5.80;;
8622;SDS011;4349;47.552;8.904;2023-05-13T07:08:55;6.10;;;5.70;;
8622;SDS011;4349;47.552;8.904;2023-05-13T07:11:22;5.60;;;5.27;;
8622;SDS011;4349;47.552;8.904;2023-05-13T07:13:50;5.37;;;5.07;;
8622;SDS011;4349;47.552;8.904;2023-05-13T07:16:17;6.20;;;5.80;;
8622;SDS011;4349;47.552;8.904;2023-05-13T07:18:44;5.70;;;5.30;;
8622;SDS011;4349;47.552;8.904;2023-05-13T07:21:12;6.03;;;5.53;;
8622;SDS011;4349;47.552;8.904;2023-05-13T07:23:40;6.17;;;5.57;;
8622;SDS011;4349;47.552;8.904;2023-05-13T07:26:11;6.73;;;6.23;;
8622;SDS011;4349;47.552;8.904;2023-05-13T07:28:38;5.63;;;5.33;;
8622;SDS011;4349;47.552;8.904;2023-05-13T07:31:06;5.97;;;5.50;;
8622;SDS011;4349;47.552;8.904;2023-05-13T07:33:34;6.23;;;5.83;;
8622;SDS011;4349;47.552;8.904;2023-05-13T07:36:02;5.57;;;5.27;;
8622;SDS011;4349;47.552;8.904;2023-05-13T07:38:29;7.20;;;6.70;;
8622;SDS011;4349;47.552;8.904;2023-05-13T07:40:56;5.80;;;5.50;;
8622;SDS011;4349;47.552;8.904;2023-05-13T07:43:25;5.87;;;5.53;;
8622;SDS011;4349;47.552;8.904;2023-05-13T07:45:53;6.30;;;5.80;;
8622;SDS011;4349;47.552;8.904;2023-05-13T07:48:20;5.37;;;5.07;;
8622;SDS011;4349;47.552;8.904;2023-05-13T07:50:49;5.67;;;5.37;;
8622;SDS011;4349;47.552;8.904;2023-05-13T07:53:17;5.50;;;5.20;;
8622;SDS011;4349;47.552;8.904;2023-05-13T07:55:45;6.10;;;5.50;;
8622;SDS011;4349;47.552;8.904;2023-05-13T07:58:12;5.73;;;5.23;;
8622;SDS011;4349;47.552;8.904;2023-05-13T08:00:41;6.13;;;5.73;;
8622;SDS011;4349;47.552;8.904;2023-05-13T08:03:08;5.37;;;5.07;;
8622;SDS011;4349;47.552;8.904;2023-05-13T08:05:36;5.60;;;5.23;;
8622;SDS011;4349;47.552;8.904;2023-05-13T08:08:03;5.67;;;5.20;;
8622;SDS011;4349;47.552;8.904;2023-05-13T08:10:31;6.00;;;5.60;;
8622;SDS011;4349;47.552;8.904;2023-05-13T08:20:27;5.87;;;4.60;;
8622;SDS011;4349;47.552;8.904;2023-05-13T08:22:55;5.03;;;4.73;;
8622;SDS011;4349;47.552;8.904;2023-05-13T08:25:23;4.60;;;4.30;;
8622;SDS011;4349;47.552;8.904;2023-05-13T08:27:51;5.57;;;5.27;;
8622;SDS011;4349;47.552;8.904;2023-05-13T08:30:18;4.70;;;4.50;;
8622;SDS011;4349;47.552;8.904;2023-05-13T08:32:46;4.13;;;3.93;;
8622;SDS011;4349;47.552;8.904;2023-05-13T08:35:13;4.47;;;4.27;;
8622;SDS011;4349;47.552;8.904;2023-05-13T08:37:42;4.53;;;4.23;;
8622;SDS011;4349;47.552;8.904;2023-05-13T08:40:10;4.43;;;4.23;;
8622;SDS011;4349;47.552;8.904;2023-05-13T08:42:38;4.50;;;4.20;;
8622;SDS011;4349;47.552;8.904;2023-05-13T08:45:06;4.30;;;4.10;;
8622;SDS011;4349;47.552;8.904;2023-05-13T08:47:37;4.87;;;4.47;;
8622;SDS011;4349;47.552;8.904;2023-05-13T08:50:06;4.57;;;4.30;;
8622;SDS011;4349;47.552;8.904;2023-05-13T08:52:34;4.27;;;4.07;;
8622;SDS011;4349;47.552;8.904;2023-05-13T08:55:03;4.47;;;4.27;;
8622;SDS011;4349;47.552;8.904;2023-05-13T08:57:31;4.27;;;4.07;;
8622;SDS011;4349;47.552;8.904;2023-05-13T08:59:59;4.03;;;3.83;;
8622;SDS011;4349;47.552;8.904;2023-05-13T09:02:26;4.50;;;4.20;;
8622;SDS011;4349;47.552;8.904;2023-05-13T09:04:54;4.30;;;4.00;;
8622;SDS011;4349;47.552;8.904;2023-05-13T09:07:22;4.03;;;3.90;;
8622;SDS011;4349;47.552;8.904;2023-05-13T09:09:49;4.07;;;3.87;;
8622;SDS011;4349;47.552;8.904;2023-05-13T09:15:07;4.63;;;4.30;;
8622;SDS011;4349;47.552;8.904;2023-05-13T09:17:35;4.40;;;4.10;;
8622;SDS011;4349;47.552;8.904;2023-05-13T09:20:05;3.90;;;3.70;;
8622;SDS011;4349;47.552;8.904;2023-05-13T09:22:33;3.87;;;3.70;;
8622;SDS011;4349;47.552;8.904;2023-05-13T09:25:00;3.80;;;3.60;;
8622;SDS011;4349;47.552;8.904;2023-05-13T09:27:34;4.37;;;4.17;;
8622;SDS011;4349;47.552;8.904;2023-05-13T09:30:02;4.10;;;3.80;;
8622;SDS011;4349;47.552;8.904;2023-05-13T09:32:31;4.10;;;3.90;;
8622;SDS011;4349;47.552;8.904;2023-05-13T09:35:06;4.20;;;4.00;;
8622;SDS011;4349;47.552;8.904;2023-05-13T09:37:34;3.87;;;3.70;;
8622;SDS011;4349;47.552;8.904;2023-05-13T09:40:02;4.27;;;4.07;;
8622;SDS011;4349;47.552;8.904;2023-05-13T09:42:29;4.77;;;4.37;;
8622;SDS011;4349;47.552;8.904;2023-05-13T09:45:02;4.33;;;4.13;;
8622;SDS011;4349;47.552;8.904;2023-05-13T09:47:31;4.40;;;4.20;;
8622;SDS011;4349;47.552;8.904;2023-05-13T09:50:00;4.03;;;3.73;;
8622;SDS011;4349;47.552;8.904;2023-05-13T09:52:28;4.57;;;4.30;;
8622;SDS011;4349;47.552;8.904;2023-05-13T09:54:55;4.40;;;4.20;;
8622;SDS011;4349;47.552;8.904;2023-05-13T09:57:23;4.23;;;3.93;;
8622;SDS011;4349;47.552;8.904;2023-05-13T09:59:55;5.23;;;4.93;;
8622;SDS011;4349;47.552;8.904;2023-05-13T10:02:22;4.67;;;4.37;;
8622;SDS011;4349;47.552;8.904;2023-05-13T10:04:52;4.40;;;4.20;;
8622;SDS011;4349;47.552;8.904;2023-05-13T10:07:20;4.97;;;4.67;;
8622;SDS011;4349;47.552;8.904;2023-05-13T10:09:50;4.50;;;4.20;;
8622;SDS011;4349;47.552;8.904;2023-05-13T10:12:18;4.77;;;4.53;;
8622;SDS011;4349;47.552;8.904;2023-05-13T10:14:46;4.03;;;3.80;;
8622;SDS011;4349;47.552;8.904;2023-05-13T10:17:15;3.87;;;3.77;;
8622;SDS011;4349;47.552;8.904;2023-05-13T10:19:43;4.60;;;4.40;;
8622;SDS011;4349;47.552;8.904;2023-05-13T10:22:12;4.40;;;4.20;;
8622;SDS011;4349;47.552;8.904;2023-05-13T10:24:40;4.67;;;4.47;;
8622;SDS011;4349;47.552;8.904;2023-05-13T10:27:07;4.93;;;4.53;;
8622;SDS011;4349;47.552;8.904;2023-05-13T10:29:36;4.80;;;4.60;;
8622;SDS011;4349;47.552;8.904;2023-05-13T10:32:06;4.47;;;4.27;;
8622;SDS011;4349;47.552;8.904;2023-05-13T10:34:34;4.50;;;4.30;;
8622;SDS011;4349;47.552;8.904;2023-05-13T10:37:08;5.07;;;4.70;;
8622;SDS011;4349;47.552;8.904;2023-05-13T10:39:47;4.90;;;4.60;;
8622;SDS011;4349;47.552;8.904;2023-05-13T10:42:28;5.10;;;4.63;;
8622;SDS011;4349;47.552;8.904;2023-05-13T10:44:57;5.17;;;4.77;;
8622;SDS011;4349;47.552;8.904;2023-05-13T10:47:25;5.50;;;5.20;;
8622;SDS011;4349;47.552;8.904;2023-05-13T10:49:53;5.17;;;4.87;;
8622;SDS011;4349;47.552;8.904;2023-05-13T10:52:20;5.63;;;5.20;;
8622;SDS011;4349;47.552;8.904;2023-05-13T10:54:58;5.60;;;5.20;;
8622;SDS011;4349;47.552;8.904;2023-05-13T10:57:27;5.33;;;5.03;;
8622;SDS011;4349;47.552;8.904;2023-05-13T11:00:10;5.50;;;5.10;;
8622;SDS011;4349;47.552;8.904;2023-05-13T11:02:38;4.70;;;4.50;;
8622;SDS011;4349;47.552;8.904;2023-05-13T11:05:06;5.00;;;4.70;;
8622;SDS011;4349;47.552;8.904;2023-05-13T11:07:36;5.60;;;5.30;;
8622;SDS011;4349;47.552;8.904;2023-05-13T11:10:05;5.10;;;4.80;;
8622;SDS011;4349;47.552;8.904;2023-05-13T11:15:41;5.67;;;5.27;;
8622;SDS011;4349;47.552;8.904;2023-05-13T11:18:10;5.47;;;5.17;;
8622;SDS011;4349;47.552;8.904;2023-05-13T11:20:37;5.30;;;5.00;;
8622;SDS011;4349;47.552;8.904;2023-05-13T11:23:17;6.47;;;6.00;;
8622;SDS011;4349;47.552;8.904;2023-05-13T11:25:46;5.87;;;5.33;;
8622;SDS011;4349;47.552;8.904;2023-05-13T11:28:53;5.43;;;5.10;;
8622;SDS011;4349;47.552;8.904;2023-05-13T11:31:21;5.50;;;5.10;;
8622;SDS011;4349;47.552;8.904;2023-05-13T11:34:04;5.57;;;5.10;;
8622;SDS011;4349;47.552;8.904;2023-05-13T11:36:32;5.03;;;4.73;;
8622;SDS011;4349;47.552;8.904;2023-05-13T11:39:03;5.63;;;5.33;;
8622;SDS011;4349;47.552;8.904;2023-05-13T11:41:32;5.53;;;5.23;;
8622;SDS011;4349;47.552;8.904;2023-05-13T11:44:00;5.47;;;5.17;;
8622;SDS011;4349;47.552;8.904;2023-05-13T11:46:28;5.83;;;5.43;;
8622;SDS011;4349;47.552;8.904;2023-05-13T11:48:56;5.43;;;5.13;;
8622;SDS011;4349;47.552;8.904;2023-05-13T11:51:23;5.50;;;5.20;;
8622;SDS011;4349;47.552;8.904;2023-05-13T11:53:51;6.50;;;5.90;;
8622;SDS011;4349;47.552;8.904;2023-05-13T11:56:25;5.63;;;5.23;;
8622;SDS011;4349;47.552;8.904;2023-05-13T11:58:55;5.27;;;4.97;;
8622;SDS011;4349;47.552;8.904;2023-05-13T12:01:22;5.17;;;4.87;;
8622;SDS011;4349;47.552;8.904;2023-05-13T12:03:59;5.87;;;5.47;;
8622;SDS011;4349;47.552;8.904;2023-05-13T12:06:27;5.57;;;5.17;;
8622;SDS011;4349;47.552;8.904;2023-05-13T12:08:55;5.73;;;5.33;;
8622;SDS011;4349;47.552;8.904;2023-05-13T12:11:23;5.40;;;5.10;;
8622;SDS011;4349;47.552;8.904;2023-05-13T12:13:52;5.90;;;5.60;;
8622;SDS011;4349;47.552;8.904;2023-05-13T12:16:21;5.60;;;5.30;;
8622;SDS011;4349;47.552;8.904;2023-05-13T12:18:53;5.63;;;5.23;;
8622;SDS011;4349;47.552;8.904;2023-05-13T12:21:21;6.13;;;5.53;;
8622;SDS011;4349;47.552;8.904;2023-05-13T12:23:49;5.17;;;4.87;;
8622;SDS011;4349;47.552;8.904;2023-05-13T12:26:16;5.70;;;5.40;;
8622;SDS011;4349;47.552;8.904;2023-05-13T12:28:45;5.43;;;5.13;;
8622;SDS011;4349;47.552;8.904;2023-05-13T12:31:14;5.83;;;5.43;;
8622;SDS011;4349;47.552;8.904;2023-05-13T12:33:43;5.60;;;5.30;;
8622;SDS011;4349;47.552;8.904;2023-05-13T12:36:15;6.10;;;5.73;;
8622;SDS011;4349;47.552;8.904;2023-05-13T12:38:53;6.23;;;5.83;;
8622;SDS011;4349;47.552;8.904;2023-05-13T12:41:26;6.77;;;6.27;;
8622;SDS011;4349;47.552;8.904;2023-05-13T12:43:55;6.20;;;5.80;;
8622;SDS011;4349;47.552;8.904;2023-05-13T12:46:23;6.27;;;5.77;;
8622;SDS011;4349;47.552;8.904;2023-05-13T12:48:53;6.37;;;5.87;;
8622;SDS011;4349;47.552;8.904;2023-05-13T12:51:21;6.27;;;5.80;;
8622;SDS011;4349;47.552;8.904;2023-05-13T12:53:48;6.53;;;6.03;;
8622;SDS011;4349;47.552;8.904;2023-05-13T12:56:16;6.30;;;5.90;;
8622;SDS011;4349;47.552;8.904;2023-05-13T12:58:43;6.90;;;6.30;;
8622;SDS011;4349;47.552;8.904;2023-05-13T13:01:11;6.67;;;6.27;;
8622;SDS011;4349;47.552;8.904;2023-05-13T13:03:38;6.67;;;6.23;;
8622;SDS011;4349;47.552;8.904;2023-05-13T13:06:07;6.90;;;6.30;;
8622;SDS011;4349;47.552;8.904;2023-05-13T13:08:35;6.83;;;6.33;;
8622;SDS011;4349;47.552;8.904;2023-05-13T13:11:02;6.53;;;6.13;;
8622;SDS011;4349;47.552;8.904;2023-05-13T13:13:30;6.67;;;6.20;;
8622;SDS011;4349;47.552;8.904;2023-05-13T13:15:57;7.10;;;6.60;;
8622;SDS011;4349;47.552;8.904;2023-05-13T13:18:25;7.10;;;6.60;;
8622;SDS011;4349;47.552;8.904;2023-05-13T13:20:53;7.20;;;6.60;;
8622;SDS011;4349;47.552;8.904;2023-05-13T13:23:22;7.67;;;7.07;;
8622;SDS011;4349;47.552;8.904;2023-05-13T13:25:49;7.97;;;7.30;;
8622;SDS011;4349;47.552;8.904;2023-05-13T13:28:17;7.63;;;7.03;;
8622;SDS011;4349;47.552;8.904;2023-05-13T13:30:44;8.30;;;7.60;;
8622;SDS011;4349;47.552;8.904;2023-05-13T13:33:13;7.93;;;7.33;;
8622;SDS011;4349;47.552;8.904;2023-05-13T13:35:41;7.27;;;6.77;;
8622;SDS011;4349;47.552;8.904;2023-05-13T13:38:09;7.70;;;7.10;;
8622;SDS011;4349;47.552;8.904;2023-05-13T13:40:38;8.40;;;7.80;;
8622;SDS011;4349;47.552;8.904;2023-05-13T13:43:06;7.80;;;7.10;;
8622;SDS011;4349;47.552;8.904;2023-05-13T13:45:33;8.17;;;7.43;;
8622;SDS011;4349;47.552;8.904;2023-05-13T13:48:01;8.70;;;7.87;;
8622;SDS011;4349;47.552;8.904;2023-05-13T13:50:30;8.17;;;7.53;;
8622;SDS011;4349;47.552;8.904;2023-05-13T13:52:57;8.40;;;7.80;;
8622;SDS011;4349;47.552;8.904;2023-05-13T13:55:25;7.60;;;7.00;;
8622;SDS011;4349;47.552;8.904;2023-05-13T13:57:54;8.20;;;7.57;;
8622;SDS011;4349;47.552;8.904;2023-05-13T14:00:21;7.83;;;7.20;;
8622;SDS011;4349;47.552;8.904;2023-05-13T14:02:49;9.23;;;8.07;;
8622;SDS011;4349;47.552;8.904;2023-05-13T14:05:16;8.97;;;8.33;;
8622;SDS011;4349;47.552;8.904;2023-05-13T14:07:44;8.87;;;8.13;;
8622;SDS011;4349;47.552;8.904;2023-05-13T14:10:13;8.00;;;7.40;;
8622;SDS011;4349;47.552;8.904;2023-05-13T14:12:41;8.57;;;7.97;;
8622;SDS011;4349;47.552;8.904;2023-05-13T14:15:10;8.70;;;8.00;;
8622;SDS011;4349;47.552;8.904;2023-05-13T14:17:37;9.03;;;8.27;;
8622;SDS011;4349;47.552;8.904;2023-05-13T14:20:05;8.60;;;7.83;;
8622;SDS011;4349;47.552;8.904;2023-05-13T14:22:35;9.20;;;8.40;;
8622;SDS011;4349;47.552;8.904;2023-05-13T14:25:02;9.53;;;8.70;;
8622;SDS011;4349;47.552;8.904;2023-05-13T14:27:30;8.97;;;8.27;;
8622;SDS011;4349;47.552;8.904;2023-05-13T14:29:59;9.63;;;8.73;;
8622;SDS011;4349;47.552;8.904;2023-05-13T14:32:28;9.40;;;8.60;;
8622;SDS011;4349;47.552;8.904;2023-05-13T14:34:55;9.20;;;8.30;;
8622;SDS011;4349;47.552;8.904;2023-05-13T14:37:23;8.43;;;7.63;;
8622;SDS011;4349;47.552;8.904;2023-05-13T14:39:50;9.17;;;7.97;;
8622;SDS011;4349;47.552;8.904;2023-05-13T14:42:18;9.47;;;8.50;;
8622;SDS011;4349;47.552;8.904;2023-05-13T14:44:46;8.60;;;7.90;;
8622;SDS011;4349;47.552;8.904;2023-05-13T14:47:13;8.70;;;8.00;;
8622;SDS011;4349;47.552;8.904;2023-05-13T14:49:42;9.27;;;8.37;;
8622;SDS011;4349;47.552;8.904;2023-05-13T14:52:09;8.27;;;7.67;;
8622;SDS011;4349;47.552;8.904;2023-05-13T14:54:37;8.97;;;8.17;;
8622;SDS011;4349;47.552;8.904;2023-05-13T14:57:04;8.67;;;7.97;;
8622;SDS011;4349;47.552;8.904;2023-05-13T14:59:32;8.70;;;7.90;;
8622;SDS011;4349;47.552;8.904;2023-05-13T15:02:00;7.90;;;7.30;;
8622;SDS011;4349;47.552;8.904;2023-05-13T15:04:27;8.00;;;7.40;;
8622;SDS011;4349;47.552;8.904;2023-05-13T15:06:56;9.00;;;8.20;;
8622;SDS011;4349;47.552;8.904;2023-05-13T15:09:24;8.30;;;7.70;;
8622;SDS011;4349;47.552;8.904;2023-05-13T15:11:51;8.83;;;8.10;;
8622;SDS011;4349;47.552;8.904;2023-05-13T15:14:21;10.50;;;8.67;;
8622;SDS011;4349;47.552;8.904;2023-05-13T15:16:50;9.20;;;8.40;;
8622;SDS011;4349;47.552;8.904;2023-05-13T15:19:18;8.57;;;7.87;;
8622;SDS011;4349;47.552;8.904;2023-05-13T15:21:45;9.67;;;8.87;;
8622;SDS011;4349;47.552;8.904;2023-05-13T15:24:14;9.87;;;9.00;;
8622;SDS011;4349;47.552;8.904;2023-05-13T15:26:41;9.37;;;8.57;;
8622;SDS011;4349;47.552;8.904;2023-05-13T15:29:09;9.83;;;9.03;;
8622;SDS011;4349;47.552;8.904;2023-05-13T15:31:36;9.50;;;8.80;;
8622;SDS011;4349;47.552;8.904;2023-05-13T15:34:04;9.50;;;8.70;;
8622;SDS011;4349;47.552;8.904;2023-05-13T15:36:32;9.83;;;8.93;;